createdAt,value
2022-11-22T00:03:40.037Z,80.01
2022-11-22T00:08:33.289Z,80.13
2022-11-22T00:13:25.025Z,79.50
2022-11-22T00:18:16.570Z,78.62
2022-11-22T00:23:08.151Z,78.65
2022-11-22T00:27:59.732Z,78.41
2022-11-22T00:32:51.298Z,78.09
2022-11-22T00:37:42.869Z,78.68
2022-11-22T00:42:34.421Z,78.49
2022-11-22T00:47:25.920Z,78.96
2022-11-22T00:52:17.467Z,77.93
2022-11-22T00:57:09.018Z,79.15
2022-11-22T01:02:00.597Z,78.72
2022-11-22T01:06:52.169Z,78.79
2022-11-22T01:11:44.348Z,79.03
2022-11-22T01:16:36.048Z,79.21
2022-11-22T01:21:27.729Z,78.98
2022-11-22T01:26:19.476Z,79.31
2022-11-22T01:31:10.992Z,80.54
2022-11-22T01:36:02.630Z,80.69
2022-11-22T01:40:54.350Z,80.45
2022-11-22T01:45:51.451Z,80.88
2022-11-22T01:50:45.922Z,80.83
2022-11-22T01:55:37.528Z,80.16
2022-11-22T02:00:29.086Z,81.46
2022-11-22T02:05:24.085Z,82.14
2022-11-22T02:10:18.751Z,83.13
2022-11-22T02:15:11.536Z,83.06
2022-11-22T02:20:06.596Z,82.93
2022-11-22T02:25:28.057Z,82.67
2022-11-22T02:30:19.761Z,82.57
2022-11-22T02:35:30.434Z,83.04
2022-11-22T02:40:23.216Z,82.69
2022-11-22T02:45:14.898Z,82.20
2022-11-22T02:50:07.348Z,82.47
2022-11-22T02:54:58.880Z,82.42
2022-11-22T02:59:50.389Z,82.99
2022-11-22T03:04:41.962Z,82.75
2022-11-22T03:09:33.733Z,82.79
2022-11-22T03:14:25.693Z,82.95
2022-11-22T03:19:17.678Z,83.13
2022-11-22T03:24:10.409Z,83.19
2022-11-22T03:29:02.352Z,82.54
2022-11-22T03:33:54.290Z,82.29
2022-11-22T03:38:45.934Z,82.98
2022-11-22T03:43:38.110Z,82.91
2022-11-22T03:48:29.839Z,83.36
2022-11-22T03:53:21.456Z,83.36
2022-11-22T03:58:12.998Z,82.01
2022-11-22T04:03:04.543Z,81.79
2022-11-22T04:07:58.912Z,82.09
2022-11-22T04:12:50.490Z,82.52
2022-11-22T04:17:45.073Z,82.22
2022-11-22T04:22:36.620Z,82.15
2022-11-22T04:27:28.134Z,82.24
2022-11-22T04:32:38.441Z,83.20
2022-11-22T04:37:30.005Z,83.04
2022-11-22T04:42:40.150Z,83.27
2022-11-22T04:48:07.053Z,82.35
2022-11-22T04:52:59.084Z,82.09
2022-11-22T04:57:55.949Z,82.26
2022-11-22T05:02:50.657Z,81.80
2022-11-22T05:07:42.285Z,82.14
2022-11-22T05:12:33.884Z,81.46
2022-11-22T05:17:25.525Z,81.91
2022-11-22T05:22:17.186Z,81.63
2022-11-22T05:27:08.732Z,81.35
2022-11-22T05:32:00.314Z,80.05
2022-11-22T05:36:51.872Z,79.76
2022-11-22T05:41:55.772Z,79.50
2022-11-22T05:46:47.543Z,79.03
2022-11-22T05:51:39.095Z,78.59
2022-11-22T05:56:30.694Z,79.18
2022-11-22T06:01:24.200Z,79.19
2022-11-22T06:06:16.349Z,79.30
2022-11-22T06:11:12.991Z,79.02
2022-11-22T06:16:06.454Z,78.92
2022-11-22T06:20:59.982Z,78.74
2022-11-22T06:25:59.698Z,78.54
2022-11-22T06:30:51.189Z,78.65
2022-11-22T06:35:42.709Z,77.98
2022-11-22T06:40:34.217Z,78.10
2022-11-22T06:45:25.790Z,77.47
2022-11-22T06:50:21.548Z,76.92
2022-11-22T06:55:42.458Z,75.97
2022-11-22T07:00:25.165Z,75.83
2022-11-22T07:05:31.895Z,75.70
2022-11-22T07:10:23.447Z,74.95
2022-11-22T07:15:14.984Z,74.67
2022-11-22T07:20:07.037Z,74.64
2022-11-22T07:24:58.536Z,75.19
2022-11-22T07:29:50.173Z,75.16
2022-11-22T07:34:41.804Z,75.13
2022-11-22T07:39:33.391Z,74.73
2022-11-22T07:44:24.909Z,71.39
2022-11-22T07:49:16.569Z,69.88
2022-11-22T07:54:12.122Z,68.47
2022-11-22T07:59:03.995Z,68.45
2022-11-22T08:03:56.543Z,68.12
2022-11-22T08:08:48.162Z,66.87
2022-11-22T08:13:39.880Z,63.21
2022-11-22T08:18:31.557Z,60.10
2022-11-22T08:23:23.056Z,59.55
2022-11-22T08:28:14.701Z,58.51
2022-11-22T08:33:06.198Z,58.24
2022-11-22T08:37:58.131Z,60.10
2022-11-22T08:42:49.747Z,62.68
2022-11-22T08:47:41.311Z,62.88
2022-11-22T08:52:34.560Z,62.37
2022-11-22T08:57:26.123Z,61.96
2022-11-22T09:02:17.705Z,61.28
2022-11-22T09:12:22.086Z,56.92
2022-11-22T09:17:17.794Z,56.11
2022-11-22T09:22:09.925Z,55.32
2022-11-22T09:27:01.480Z,55.26
2022-11-22T09:31:53.097Z,55.54
2022-11-22T09:36:44.714Z,55.96
2022-11-22T09:41:47.206Z,55.07
2022-11-22T09:47:05.125Z,55.92
2022-11-22T09:52:19.847Z,56.65
2022-11-22T09:57:24.926Z,57.21
2022-11-22T10:02:25.553Z,57.80
2022-11-22T10:07:40.717Z,58.97
2022-11-22T10:12:41.947Z,59.05
2022-11-22T10:17:59.211Z,58.44
2022-11-22T10:22:51.229Z,58.89
2022-11-22T10:27:44.221Z,59.05
2022-11-22T10:32:46.505Z,58.13
2022-11-22T10:37:57.942Z,58.14
2022-11-22T10:43:28.626Z,58.58
2022-11-22T10:48:42.468Z,58.27
2022-11-22T10:53:50.292Z,57.59
2022-11-22T10:59:32.001Z,56.46
2022-11-22T11:04:27.977Z,56.98
2022-11-22T11:10:09.826Z,56.31
2022-11-22T11:15:13.253Z,56.30
2022-11-22T11:20:17.362Z,55.80
2022-11-22T11:25:35.059Z,55.96
2022-11-22T11:30:26.770Z,56.74
2022-11-22T11:35:21.817Z,56.65
2022-11-22T11:40:32.056Z,56.23
2022-11-22T11:45:29.157Z,56.33
2022-11-22T11:50:24.561Z,56.61
2022-11-22T11:55:17.412Z,56.23
2022-11-22T12:00:34.877Z,56.56
2022-11-22T12:05:32.191Z,57.45
2022-11-22T12:10:47.025Z,58.07
2022-11-22T12:15:59.963Z,57.55
2022-11-22T12:20:57.579Z,57.27
2022-11-22T12:25:53.356Z,56.87
2022-11-22T12:30:53.022Z,56.89
2022-11-22T12:35:46.238Z,57.32
2022-11-22T12:40:44.938Z,56.73
2022-11-22T12:45:42.611Z,57.48
2022-11-22T12:50:41.655Z,57.52
2022-11-22T12:56:02.559Z,57.73
2022-11-22T13:01:24.604Z,58.07
2022-11-22T13:06:21.808Z,58.53
2022-11-22T13:11:27.526Z,58.51
2022-11-22T13:16:19.068Z,58.71
2022-11-22T13:21:29.378Z,58.17
2022-11-22T13:26:39.182Z,57.66
2022-11-22T13:31:30.930Z,57.57
2022-11-22T13:36:31.598Z,57.74
2022-11-22T13:41:29.013Z,58.06
2022-11-22T13:46:46.895Z,58.22
2022-11-22T13:51:56.058Z,58.28
2022-11-22T13:56:58.417Z,58.85
2022-11-22T14:01:50.677Z,59.29
2022-11-22T14:07:10.901Z,59.55
2022-11-22T14:12:11.301Z,60.16
2022-11-22T14:17:21.993Z,60.63
2022-11-22T14:22:20.825Z,61.08
2022-11-22T14:27:26.921Z,61.61
2022-11-22T14:32:20.719Z,61.98
2022-11-22T14:37:15.524Z,62.28
2022-11-22T14:42:43.712Z,62.99
2022-11-22T14:47:36.787Z,63.24
2022-11-22T14:52:32.461Z,63.39
2022-11-22T14:57:26.691Z,63.34
2022-11-22T15:02:27.499Z,63.55
2022-11-22T15:09:12.371Z,64.34
2022-11-22T15:13:42.216Z,65.99
2022-11-22T16:00:30.322Z,66.18
2022-11-22T16:06:05.383Z,66.57
2022-11-22T16:10:49.914Z,66.70
2022-11-22T16:15:42.027Z,66.49
2022-11-22T16:20:38.685Z,67.09
2022-11-22T16:25:35.065Z,67.03
2022-11-22T16:30:26.905Z,66.95
2022-11-22T16:35:30.378Z,67.18
2022-11-22T16:40:21.991Z,67.57
2022-11-22T16:45:16.521Z,68.29
2022-11-22T16:50:11.923Z,68.32
2022-11-22T16:55:04.068Z,68.09
2022-11-22T16:59:55.720Z,68.42
2022-11-22T17:04:48.964Z,68.55
2022-11-22T17:09:41.068Z,68.97
2022-11-22T17:14:32.887Z,69.34
2022-11-22T17:19:51.443Z,69.25
2022-11-22T17:24:36.177Z,69.68
2022-11-22T17:29:49.715Z,69.77
2022-11-22T17:34:39.295Z,70.17
2022-11-22T17:39:31.025Z,72.00
2022-11-22T17:44:22.759Z,71.99
2022-11-22T17:49:16.332Z,72.06
2022-11-22T17:54:09.135Z,72.13
2022-11-22T17:59:00.711Z,72.64
2022-11-22T18:03:52.389Z,73.11
2022-11-22T18:08:47.158Z,73.38
2022-11-22T18:13:40.753Z,73.41
2022-11-22T18:18:55.536Z,73.34
2022-11-22T18:23:45.211Z,73.19
2022-11-22T18:28:39.355Z,72.70
2022-11-22T18:33:34.627Z,72.00
2022-11-22T18:38:26.734Z,71.75
2022-11-22T18:43:18.402Z,71.93
2022-11-22T18:48:10.068Z,72.11
2022-11-22T18:53:01.652Z,71.98
2022-11-22T18:57:53.352Z,72.30
2022-11-22T19:02:44.960Z,72.43
2022-11-22T19:07:36.704Z,72.31
2022-11-22T19:12:29.197Z,72.26
2022-11-22T19:17:22.153Z,72.43
2022-11-22T19:22:14.229Z,72.27
2022-11-22T19:27:05.960Z,72.50
2022-11-22T19:31:57.550Z,72.15
2022-11-22T19:36:49.110Z,71.99
2022-11-22T19:41:44.843Z,71.78
2022-11-22T19:46:38.501Z,71.87
2022-11-22T19:51:31.328Z,71.49
2022-11-22T19:56:22.894Z,71.38
2022-11-22T20:01:15.556Z,70.87
2022-11-22T20:06:09.046Z,71.01
2022-11-22T20:11:06.512Z,70.76
2022-11-22T20:15:58.110Z,70.70
2022-11-22T20:20:49.737Z,70.43
2022-11-22T20:25:41.515Z,71.62
2022-11-22T20:30:34.416Z,71.83
2022-11-22T20:35:26.009Z,72.25
2022-11-22T20:40:17.659Z,72.95
2022-11-22T20:45:09.365Z,73.17
2022-11-22T20:50:01.022Z,73.54
2022-11-22T20:54:52.592Z,73.52
2022-11-22T20:59:44.272Z,73.07
2022-11-22T21:04:36.118Z,73.00
2022-11-22T21:09:27.807Z,73.04
2022-11-22T21:14:20.744Z,72.01
2022-11-22T21:19:12.888Z,72.35
2022-11-22T21:24:06.117Z,72.10
2022-11-22T21:28:59.359Z,71.81
2022-11-22T21:33:51.646Z,71.90
2022-11-22T21:38:43.304Z,71.84
2022-11-22T21:43:35.100Z,71.66
2022-11-22T21:48:26.719Z,72.53
2022-11-22T21:53:18.341Z,73.58
2022-11-22T21:58:09.908Z,73.82
2022-11-22T22:03:01.421Z,73.65
2022-11-22T22:07:53.376Z,73.58
2022-11-22T22:12:44.993Z,73.03
2022-11-22T22:17:36.549Z,73.11
2022-11-22T22:22:28.054Z,72.80
2022-11-22T22:27:19.667Z,72.28
2022-11-22T22:32:11.240Z,71.58
2022-11-22T22:37:02.802Z,71.92
2022-11-22T22:41:54.333Z,71.19
2022-11-22T22:46:45.921Z,71.52
2022-11-22T22:51:37.443Z,71.06
2022-11-22T22:56:30.529Z,71.19
2022-11-22T23:01:24.516Z,70.93
2022-11-22T23:06:16.832Z,70.74
2022-11-22T23:11:10.978Z,70.80
2022-11-22T23:16:04.137Z,70.99
2022-11-22T23:20:59.850Z,71.04
2022-11-22T23:25:51.408Z,70.90
2022-11-22T23:30:42.982Z,70.86
2022-11-22T23:35:35.469Z,70.86
2022-11-22T23:40:27.022Z,70.94
2022-11-22T23:45:18.598Z,70.86
2022-11-22T23:50:10.220Z,70.84
2022-11-22T23:55:02.113Z,70.58
2022-11-22T23:59:53.602Z,70.48
